Time;durP1;ratioP1;P1;durP2;ratioP2;P2;SDS_P1;SDS_P2;PMS_P1;PMS_P2;Temp;Humidity;BMP_temperature;BMP_pressure;BME280_temperature;BME280_humidity;BME280_pressure;Samples;Min_cycle;Max_cycle;Signal;HPM_P1;HPM_P2
2021/03/22 00:00:56;;;;;;;35.40;21.92;;;153.90;2099.20;;;;;;5029432;28;20034;-61
2021/03/22 00:03:23;;;;;;;38.42;22.30;;;154.00;2048.00;;;;;;5032897;28;20026;-60
2021/03/22 00:05:50;;;;;;;32.17;21.13;;;154.00;2048.00;;;;;;5032468;28;20029;-61
2021/03/22 00:08:17;;;;;;;32.97;20.85;;;153.90;2073.60;;;;;;5032913;28;20018;-62
2021/03/22 00:10:45;;;;;;;37.65;22.23;;;153.80;2099.20;;;;;;5032728;28;20104;-62
2021/03/22 00:13:14;;;;;;;35.40;22.05;;;153.80;2150.40;;;;;;5032743;28;20018;-61
2021/03/22 00:15:40;;;;;;;;;;;153.70;2176.00;;;;;;5033208;28;20052;-62
2021/03/22 00:18:09;;;;;;;34.55;21.42;;;153.60;2227.20;;;;;;5031365;28;19984;-61
2021/03/22 00:20:36;;;;;;;38.15;22.88;;;153.60;2227.20;;;;;;5031957;28;20041;-61
2021/03/22 00:23:02;;;;;;;31.48;21.35;;;153.60;2227.20;;;;;;5032237;28;20407;-62
2021/03/22 00:25:28;;;;;;;35.67;22.27;;;153.60;2227.20;;;;;;5031733;28;20029;-63
2021/03/22 00:27:53;;;;;;;36.92;22.30;;;153.80;2252.80;;;;;;5032275;28;20388;-61
2021/03/22 00:30:23;;;;;;;32.50;20.88;;;153.80;2227.20;;;;;;5032778;28;20103;-61
2021/03/22 00:32:49;;;;;;;33.10;21.30;;;153.70;2201.60;;;;;;5034492;28;20040;-63
2021/03/22 00:35:16;;;;;;;34.60;21.13;;;153.70;2252.80;;;;;;5033721;28;20029;-62
2021/03/22 00:37:42;;;;;;;34.28;20.92;;;153.70;2201.60;;;;;;5034355;28;20352;-60
2021/03/22 00:40:09;;;;;;;31.50;20.40;;;153.70;2252.80;;;;;;5033829;28;20037;-60
2021/03/22 00:42:35;;;;;;;29.77;20.65;;;153.70;2252.80;;;;;;5033751;28;20021;-60
2021/03/22 00:45:00;;;;;;;33.35;21.52;;;128.90;2252.80;;;;;;5032658;28;20032;-61
2021/03/22 00:47:26;;;;;;;36.03;22.65;;;153.70;2252.80;;;;;;5032736;28;20021;-61
2021/03/22 00:49:52;;;;;;;33.95;22.20;;;128.90;2252.80;;;;;;5032953;28;20033;-60
2021/03/22 00:52:17;;;;;;;35.95;22.33;;;128.90;2252.80;;;;;;5032710;28;20025;-61
2021/03/22 00:54:43;;;;;;;36.15;24.25;;;153.60;2252.80;;;;;;5032927;28;20037;-59
2021/03/22 00:57:10;;;;;;;36.70;23.33;;;153.60;2252.80;;;;;;5033265;28;20032;-60
2021/03/22 00:59:36;;;;;;;39.08;25.20;;;153.80;2252.80;;;;;;5032462;28;20416;-61
2021/03/22 01:02:04;;;;;;;39.42;24.83;;;153.70;2227.20;;;;;;5032397;28;20472;-60
2021/03/22 01:04:29;;;;;;;40.55;26.02;;;128.80;2252.80;;;;;;5032532;28;20081;-62
2021/03/22 01:06:55;;;;;;;41.83;25.92;;;128.80;2252.80;;;;;;5032828;28;20495;-61
2021/03/22 01:09:21;;;;;;;44.03;25.92;;;128.90;2252.80;;;;;;5032039;28;20037;-59
2021/03/22 01:11:47;;;;;;;42.75;25.75;;;153.70;2252.80;;;;;;5032770;28;20041;-60
2021/03/22 01:14:12;;;;;;;44.67;26.67;;;128.70;2252.80;;;;;;5032490;28;20040;-60
2021/03/22 01:16:39;;;;;;;48.22;27.20;;;128.80;2252.80;;;;;;5032453;28;20032;-62
2021/03/22 01:19:12;;;;;;;45.50;27.15;;;128.80;2252.80;;;;;;5032700;28;20029;-61
2021/03/22 01:21:44;;;;;;;44.50;28.40;;;128.80;2252.80;;;;;;4999305;28;20030;-62
2021/03/22 01:24:12;;;;;;;47.85;27.40;;;128.80;2252.80;;;;;;5025739;28;20026;-59
2021/03/22 01:26:38;;;;;;;45.70;28.65;;;128.70;2252.80;;;;;;5032322;28;20030;-63
2021/03/22 01:29:13;;;;;;;47.67;28.73;;;128.50;2252.80;;;;;;5030813;28;20042;-61
2021/03/22 01:31:39;;;;;;;47.38;28.20;;;128.40;2252.80;;;;;;5014567;28;20392;-61
2021/03/22 01:34:05;;;;;;;48.35;27.88;;;128.70;2252.80;;;;;;5032559;28;20033;-61
2021/03/22 01:36:33;;;;;;;43.45;26.98;;;128.70;2252.80;;;;;;5032540;28;20482;-60
2021/03/22 01:39:07;;;;;;;46.72;28.85;;;128.60;2252.80;;;;;;5032486;28;20013;-62
2021/03/22 01:42:13;;;;;;;45.10;27.15;;;128.70;2252.80;;;;;;5032428;28;20396;-59
2021/03/22 01:44:43;;;;;;;42.28;26.00;;;128.60;2252.80;;;;;;5031812;28;20032;-62
2021/03/22 01:47:15;;;;;;;43.03;26.92;;;128.80;2252.80;;;;;;5032476;28;20032;-59
2021/03/22 01:49:52;;;;;;;49.67;27.20;;;128.40;2252.80;;;;;;5032267;28;20029;-60
2021/03/22 01:52:21;;;;;;;40.63;26.48;;;128.60;2252.80;;;;;;5026592;28;20030;-59
2021/03/22 01:54:49;;;;;;;46.65;27.02;;;128.70;2252.80;;;;;;5012411;28;20342;-61
2021/03/22 01:57:37;;;;;;;43.28;25.75;;;128.50;2252.80;;;;;;5030610;28;20104;-60
2021/03/22 02:00:26;;;;;;;44.17;26.08;;;128.20;2252.80;;;;;;5032123;28;20040;-60
2021/03/22 02:03:14;;;;;;;39.92;25.02;;;128.10;2252.80;;;;;;5032018;28;20038;-61
2021/03/22 02:05:44;;;;;;;41.85;26.17;;;128.30;2252.80;;;;;;5013768;28;20076;-61
2021/03/22 02:08:11;;;;;;;45.10;24.63;;;128.40;2252.80;;;;;;5012535;28;20036;-59
2021/03/22 02:10:38;;;;;;;43.75;25.17;;;128.50;2252.80;;;;;;5028185;28;20045;-58
2021/03/22 02:13:05;;;;;;;40.70;25.90;;;128.50;2252.80;;;;;;5026733;28;20026;-62
2021/03/22 02:15:31;;;;;;;43.20;25.77;;;128.70;2252.80;;;;;;5015507;28;20026;-60
2021/03/22 02:18:20;;;;;;;41.80;25.33;;;128.80;2176.00;;;;;;5033875;28;20078;-60
2021/03/22 02:21:15;;;;;;;44.40;25.95;;;128.80;2227.20;;;;;;5031961;28;20026;-61
2021/03/22 02:23:53;;;;;;;40.53;24.27;;;128.90;2201.60;;;;;;5016539;28;20476;-62
2021/03/22 02:26:24;;;;;;;46.15;26.25;;;153.60;2176.00;;;;;;5015547;28;20033;-61
2021/03/22 02:29:09;;;;;;;41.30;26.17;;;128.80;2073.60;;;;;;5015782;28;20091;-60
2021/03/22 02:31:58;;;;;;;41.10;24.92;;;128.50;2176.00;;;;;;5022291;28;20060;-61
2021/03/22 02:34:39;;;;;;;40.80;25.90;;;128.40;2201.60;;;;;;5033396;28;20029;-61
2021/03/22 02:37:10;;;;;;;45.25;25.90;;;128.40;2227.20;;;;;;5015721;28;20361;-62
2021/03/22 02:39:47;;;;;;;38.17;23.50;;;128.50;2227.20;;;;;;5015158;28;20031;-60
2021/03/22 02:42:14;;;;;;;37.65;21.98;;;128.40;2201.60;;;;;;5015636;28;20034;-61
2021/03/22 02:44:40;;;;;;;39.38;23.33;;;128.40;2176.00;;;;;;5015047;28;20153;-60
2021/03/22 02:47:19;;;;;;;38.72;23.77;;;128.50;2176.00;;;;;;5015419;28;20096;-60
2021/03/22 02:49:46;;;;;;;37.08;22.40;;;128.20;2073.60;;;;;;5030915;28;20052;-63
2021/03/22 02:52:27;;;;;;;34.92;21.40;;;128.30;2124.80;;;;;;5027777;28;20472;-62
2021/03/22 02:55:00;;;;;;;30.50;19.63;;;128.10;2048.00;;;;;;5014936;28;20036;-61
2021/03/22 02:57:49;;;;;;;32.70;20.75;;;128.10;2048.00;;;;;;5015724;28;20076;-60
2021/03/22 03:00:21;;;;;;;29.67;19.25;;;128.20;2022.40;;;;;;5014924;28;20152;-62
2021/03/22 03:02:48;;;;;;;30.42;18.20;;;128.20;1996.80;;;;;;5015108;28;20022;-60
2021/03/22 03:05:23;;;;;;;27.60;18.75;;;128.10;1971.20;;;;;;5031819;28;20029;-63
2021/03/22 03:07:49;;;;;;;28.83;18.50;;;128.20;1971.20;;;;;;5034977;28;20021;-61
2021/03/22 03:10:18;;;;;;;33.00;19.55;;;128.20;1971.20;;;;;;5034358;28;20060;-60
2021/03/22 03:12:44;;;;;;;29.15;19.08;;;128.20;1996.80;;;;;;5034618;28;20029;-60
2021/03/22 03:15:12;;;;;;;30.50;18.65;;;128.30;1945.60;;;;;;5019896;28;20036;-60
2021/03/22 03:17:37;;;;;;;30.38;18.17;;;128.40;1971.20;;;;;;5013708;28;20055;-61
2021/03/22 03:20:08;;;;;;;30.30;19.98;;;128.30;1996.80;;;;;;5014882;28;20089;-62
2021/03/22 03:22:36;;;;;;;27.90;17.45;;;128.40;1945.60;;;;;;5017053;28;20464;-62
2021/03/22 03:25:02;;;;;;;27.23;17.50;;;128.50;1894.40;;;;;;5032044;28;20021;-62
2021/03/22 03:27:28;;;;;;;29.52;18.02;;;128.30;1894.40;;;;;;5022545;28;20479;-62
2021/03/22 03:29:53;;;;;;;26.55;16.83;;;128.30;1920.00;;;;;;5020372;28;20081;-62
2021/03/22 03:32:20;;;;;;;24.90;16.52;;;128.20;1920.00;;;;;;5034028;28;20391;-63
2021/03/22 03:34:46;;;;;;;24.55;14.88;;;128.30;1945.60;;;;;;5022455;28;20037;-62
2021/03/22 03:37:12;;;;;;;23.23;13.85;;;128.40;1868.80;;;;;;5028283;28;20487;-60
2021/03/22 03:39:38;;;;;;;23.23;14.35;;;128.30;1843.20;;;;;;5023830;28;20368;-60
2021/03/22 03:42:07;;;;;;;20.23;13.10;;;128.10;1843.20;;;;;;5019778;28;20038;-60
2021/03/22 03:44:34;;;;;;;19.77;13.27;;;128.00;1868.80;;;;;;5025711;28;20018;-60
2021/03/22 03:46:59;;;;;;;19.00;12.75;;;103.20;1843.20;;;;;;4983349;28;20404;-60
2021/03/22 03:49:25;;;;;;;19.08;12.20;;;103.30;1868.80;;;;;;5020481;28;20064;-62
2021/03/22 03:51:51;;;;;;;21.50;13.10;;;103.20;1868.80;;;;;;5022187;28;20033;-62
2021/03/22 03:54:17;;;;;;;16.17;11.68;;;103.20;1868.80;;;;;;5032038;28;20052;-61
2021/03/22 03:56:43;;;;;;;17.33;11.30;;;103.20;1868.80;;;;;;5024271;28;20033;-60
2021/03/22 03:59:08;;;;;;;20.58;11.95;;;103.00;1920.00;;;;;;5027559;28;20025;-62
2021/03/22 04:01:35;;;;;;;16.50;11.27;;;102.90;1945.60;;;;;;5021705;28;20461;-61
2021/03/22 04:04:01;;;;;;;19.33;12.85;;;103.00;1920.00;;;;;;5019910;28;20033;-60
2021/03/22 04:06:30;;;;;;;16.42;11.85;;;103.10;1945.60;;;;;;5014220;28;20160;-62
2021/03/22 04:08:59;;;;;;;19.75;12.10;;;103.20;1945.60;;;;;;5013477;28;20468;-61
2021/03/22 04:11:31;;;;;;;20.55;12.15;;;103.10;1945.60;;;;;;5030494;28;20128;-62
2021/03/22 04:13:57;;;;;;;23.20;12.60;;;103.00;1945.60;;;;;;5033763;28;20025;-61
2021/03/22 04:16:25;;;;;;;18.40;11.95;;;103.10;1971.20;;;;;;5033154;28;20022;-62
2021/03/22 04:18:51;;;;;;;18.33;12.40;;;103.00;1996.80;;;;;;5033681;28;20091;-61
2021/03/22 04:21:20;;;;;;;18.92;12.27;;;103.10;1996.80;;;;;;5033209;28;20100;-62
2021/03/22 04:23:46;;;;;;;;;;;103.10;2022.40;;;;;;5033863;28;20422;-62
2021/03/22 04:26:13;;;;;;;20.52;13.60;;;103.10;2022.40;;;;;;5033249;28;19909;-62
2021/03/22 04:28:39;;;;;;;21.27;13.95;;;103.20;2022.40;;;;;;5033232;28;20037;-63
2021/03/22 04:31:05;;;;;;;23.48;14.73;;;103.30;1996.80;;;;;;5033220;28;20108;-61
2021/03/22 04:33:32;;;;;;;23.17;14.63;;;103.20;2022.40;;;;;;5033215;28;20018;-62
2021/03/22 04:35:58;;;;;;;22.52;15.07;;;103.30;2022.40;;;;;;5032130;28;20028;-62
2021/03/22 04:38:23;;;;;;;19.35;12.88;;;103.30;1996.80;;;;;;5033035;28;20025;-59
2021/03/22 04:40:49;;;;;;;21.50;13.98;;;103.20;1945.60;;;;;;5033358;28;20092;-62
2021/03/22 04:43:16;;;;;;;22.55;13.63;;;103.10;1945.60;;;;;;5032816;28;20435;-60
2021/03/22 04:45:42;;;;;;;26.08;14.55;;;102.90;2022.40;;;;;;5032965;28;20032;-62
2021/03/22 04:48:09;;;;;;;17.55;12.00;;;103.00;2022.40;;;;;;5033199;28;20033;-62
2021/03/22 04:50:35;;;;;;;26.80;13.77;;;102.80;1971.20;;;;;;5032755;28;20029;-62
2021/03/22 04:53:00;;;;;;;20.77;13.60;;;102.90;2022.40;;;;;;5032808;28;20631;-60
2021/03/22 04:55:26;;;;;;;19.52;13.02;;;102.80;2048.00;;;;;;5032681;28;20029;-63
2021/03/22 04:57:53;;;;;;;22.30;13.55;;;102.70;2048.00;;;;;;5033016;28;20030;-59
2021/03/22 05:00:26;;;;;;;28.42;12.32;;;102.80;2048.00;;;;;;5032602;28;20064;-63
2021/03/22 05:02:54;;;;;;;19.52;12.63;;;102.60;2073.60;;;;;;5032797;28;20018;-61
2021/03/22 05:05:20;;;;;;;21.42;13.80;;;102.80;2073.60;;;;;;5032768;28;20053;-60
2021/03/22 05:07:46;;;;;;;16.65;12.38;;;102.50;2099.20;;;;;;5032695;28;20049;-62
2021/03/22 05:10:19;;;;;;;19.02;12.50;;;77.60;2150.40;;;;;;5032503;28;20045;-59
2021/03/22 05:12:44;;;;;;;20.77;13.50;;;77.60;2201.60;;;;;;5032455;28;20037;-63
2021/03/22 05:15:10;;;;;;;21.60;13.85;;;77.60;2176.00;;;;;;5032866;28;20048;-62
2021/03/22 05:17:36;;;;;;;17.60;12.27;;;102.50;2150.40;;;;;;5032472;28;20111;-62
2021/03/22 05:20:05;;;;;;;19.30;12.48;;;102.60;2124.80;;;;;;5031391;28;20056;-60
2021/03/22 05:22:31;;;;;;;20.90;12.10;;;102.70;2099.20;;;;;;5018614;28;20022;-63
2021/03/22 05:24:56;;;;;;;23.23;12.23;;;102.90;2022.40;;;;;;5032332;28;20503;-62
2021/03/22 05:27:22;;;;;;;17.63;11.77;;;102.50;2099.20;;;;;;5032635;28;20021;-60
2021/03/22 05:29:48;;;;;;;18.40;12.18;;;102.60;2099.20;;;;;;5032464;28;20037;-62
2021/03/22 05:32:43;;;;;;;21.45;13.75;;;102.70;2099.20;;;;;;5032131;28;20021;-60
2021/03/22 05:35:13;;;;;;;22.77;12.98;;;102.80;2073.60;;;;;;4971229;28;20144;-62
2021/03/22 05:37:40;;;;;;;19.75;13.30;;;103.00;2048.00;;;;;;4971901;28;20031;-62
2021/03/22 05:40:13;;;;;;;18.30;12.73;;;102.80;2073.60;;;;;;4971129;28;20406;-60
2021/03/22 05:42:57;;;;;;;23.13;12.70;;;102.60;2124.80;;;;;;4972625;28;20066;-62
2021/03/22 05:45:29;;;;;;;17.38;11.25;;;102.70;2099.20;;;;;;4972970;28;20497;-63
2021/03/22 05:48:15;;;;;;;16.73;11.60;;;102.90;2099.20;;;;;;4975661;28;20026;-62
2021/03/22 05:50:56;;;;;;;16.60;11.77;;;103.10;2048.00;;;;;;4976999;28;20068;-62
2021/03/22 05:53:34;;;;;;;18.17;11.70;;;103.00;2048.00;;;;;;4975637;28;20039;-62
2021/03/22 05:56:03;;;;;;;17.90;11.68;;;103.00;2048.00;;;;;;4975073;28;20560;-62
2021/03/22 05:58:53;;;;;;;21.90;12.10;;;103.10;2048.00;;;;;;4975325;28;20039;-60
2021/03/22 06:01:40;;;;;;;16.33;11.02;;;102.90;2099.20;;;;;;4975659;28;20126;-63
2021/03/22 06:04:08;;;;;;;18.95;11.27;;;103.10;2048.00;;;;;;4977257;28;20031;-63
2021/03/22 06:06:42;;;;;;;20.25;13.85;;;102.90;2099.20;;;;;;4975646;28;20031;-59
2021/03/22 06:09:30;;;;;;;22.15;13.43;;;102.90;2124.80;;;;;;4975610;28;20043;-62
2021/03/22 06:12:33;;;;;;;21.35;13.85;;;103.10;2124.80;;;;;;5013570;28;20057;-63
2021/03/22 06:15:02;;;;;;;22.00;14.43;;;103.00;2150.40;;;;;;5032918;28;20061;-62
2021/03/22 06:17:33;;;;;;;34.08;23.52;;;103.10;2124.80;;;;;;5034072;28;20032;-61
2021/03/22 06:20:00;;;;;;;23.58;15.30;;;103.10;2124.80;;;;;;5035378;28;20088;-63
2021/03/22 06:22:31;;;;;;;32.20;20.88;;;103.00;2150.40;;;;;;5035958;28;20108;-62
2021/03/22 06:24:58;;;;;;;28.08;19.70;;;;;;;;;;5035087;28;20017;-62
2021/03/22 06:27:24;;;;;;;28.45;19.90;;;;;;;;;;5035373;28;20029;-59
2021/03/22 06:29:52;;;;;;;22.00;15.10;;;;;;;;;;5034484;28;20044;-60
2021/03/22 06:32:28;;;;;;;24.85;15.57;;;;;;;;;;5034839;28;20480;-60
2021/03/22 06:34:54;;;;;;;22.67;14.80;;;;;;;;;;5034797;28;20083;-60
2021/03/22 06:37:23;;;;;;;23.20;14.05;;;;;;;;;;5035141;28;20075;-60
2021/03/22 06:39:52;;;;;;;23.42;14.25;;;;;;;;;;5035191;28;20021;-62
2021/03/22 06:42:20;;;;;;;22.75;15.80;;;;;;;;;;5034922;28;20543;-61
2021/03/22 06:44:46;;;;;;;24.48;16.08;;;;;;;;;;5035266;28;20080;-61
2021/03/22 06:47:12;;;;;;;27.95;16.00;;;;;;;;;;5035254;28;20049;-60
2021/03/22 06:49:39;;;;;;;26.00;17.67;;;;;;;;;;5034864;28;20497;-61
2021/03/22 06:52:19;;;;;;;30.67;20.00;;;;;;;;;;5035329;28;20049;-61
2021/03/22 06:54:47;;;;;;;33.15;21.40;;;;;;;;;;5034644;28;20112;-61
2021/03/22 06:57:13;;;;;;;32.65;22.10;;;;;;;;;;5035232;28;20022;-59
2021/03/22 06:59:59;;;;;;;39.78;27.27;;;;;;;;;;5033787;28;20021;-63
2021/03/22 07:02:25;;;;;;;41.67;25.95;;;;;;;;;;5034796;28;20061;-62
2021/03/22 07:04:51;;;;;;;43.17;28.00;;;;;;;;;;5034133;28;20021;-64
2021/03/22 07:07:26;;;;;;;36.85;25.50;;;;;;;;;;5035062;28;20108;-63
2021/03/22 07:09:57;;;;;;;43.30;28.95;;;;;;;;;;5034175;28;20117;-62
2021/03/22 07:12:26;;;;;;;40.40;27.25;;;;;;;;;;5034840;28;20033;-63
2021/03/22 07:14:52;;;;;;;;;;;;;;;;;;5034806;28;20025;-60
2021/03/22 07:17:21;;;;;;;38.83;24.90;;;;;;;;;;5034342;28;19905;-62
2021/03/22 07:20:14;;;;;;;34.38;21.38;;;;;;;;;;5034222;28;20364;-60
2021/03/22 07:22:40;;;;;;;31.35;20.40;;;;;;;;;;5022526;28;20037;-63
2021/03/22 07:25:09;;;;;;;32.13;20.60;;;;;;;;;;5034081;28;20084;-64
2021/03/22 07:27:35;;;;;;;27.75;19.05;;;;;;;;;;5034853;28;20036;-61
2021/03/22 07:30:10;;;;;;;30.17;20.13;;;;;;;;;;5034634;28;20033;-64
2021/03/22 07:32:43;;;;;;;30.02;19.40;;;;;;;;;;5034316;28;20490;-63
2021/03/22 07:35:20;;;;;;;29.23;18.35;;;;;;;;;;5033585;28;20456;-60
2021/03/22 07:37:59;;;;;;;28.98;19.00;;;;;;;;;;5034136;28;20025;-64
2021/03/22 07:40:52;;;;;;;24.52;16.48;;;154.10;2073.60;;;;;;5034327;28;20483;-62
2021/03/22 07:43:39;;;;;;;25.48;17.17;;;154.10;2073.60;;;;;;5025672;28;20078;-63
2021/03/22 07:46:29;;;;;;;26.33;17.00;;;154.40;1996.80;;;;;;5033780;28;20072;-63
2021/03/22 07:49:22;;;;;;;25.73;16.70;;;179.30;1945.60;;;;;;5033976;28;20468;-63
2021/03/22 07:52:05;;;;;;;25.70;18.88;;;179.30;1945.60;;;;;;5033960;28;20364;-62
2021/03/22 07:54:43;;;;;;;20.85;14.02;;;179.20;1971.20;;;;;;5015878;28;20490;-66
2021/03/22 07:57:26;;;;;;;21.20;15.80;;;154.20;1996.80;;;;;;5033981;28;20095;-65
2021/03/22 08:00:03;;;;;;;29.35;24.25;;;179.20;1996.80;;;;;;5032985;28;20021;-60
2021/03/22 08:02:56;;;;;;;24.52;16.73;;;179.50;1945.60;;;;;;5033202;28;20367;-67
2021/03/22 08:05:57;;;;;;;18.48;14.15;;;179.20;1996.80;;;;;;5033868;28;20032;-62
2021/03/22 08:08:41;;;;;;;23.38;15.95;;;154.20;2022.40;;;;;;5031848;28;20025;-67
2021/03/22 08:11:13;;;;;;;22.55;16.15;;;179.20;2022.40;;;;;;5033262;28;20055;-66
2021/03/22 08:13:54;;;;;;;20.88;15.20;;;179.20;1996.80;;;;;;5032144;28;20487;-63
2021/03/22 08:16:38;;;;;;;21.55;14.73;;;179.20;1971.20;;;;;;5020298;28;20025;-62
2021/03/22 08:19:27;;;;;;;24.77;14.75;;;179.30;1971.20;;;;;;5033366;28;20509;-64
2021/03/22 08:22:04;;;;;;;29.23;18.52;;;179.20;1971.20;;;;;;4998445;28;20380;-66
2021/03/22 08:24:52;;;;;;;21.88;16.13;;;154.10;2048.00;;;;;;5033395;28;20036;-66
2021/03/22 08:27:24;;;;;;;24.27;16.42;;;154.10;2073.60;;;;;;5033555;28;20022;-66
2021/03/22 08:30:07;;;;;;;22.27;16.00;;;154.40;2048.00;;;;;;5033132;28;20041;-66
2021/03/22 08:32:58;;;;;;;29.73;20.65;;;154.20;2099.20;;;;;;5033292;28;20104;-61
2021/03/22 08:35:47;;;;;;;22.25;15.25;;;154.40;2073.60;;;;;;5012271;28;20425;-60
2021/03/22 08:38:20;;;;;;;27.25;17.45;;;154.50;2048.00;;;;;;5027588;28;20025;-64
2021/03/22 08:40:55;;;;;;;25.95;17.30;;;154.30;2099.20;;;;;;5022790;28;20088;-66
2021/03/22 08:44:11;;;;;;;21.95;16.35;;;154.30;2150.40;;;;;;5021955;28;20038;-66
2021/03/22 08:46:53;;;;;;;25.20;17.65;;;154.30;2124.80;;;;;;4958159;28;20621;-68
2021/03/22 08:49:34;;;;;;;23.05;16.15;;;154.00;2150.40;;;;;;4969068;28;20042;-67
2021/03/22 08:52:02;;;;;;;23.35;16.45;;;153.80;2227.20;;;;;;4973770;28;20026;-64
2021/03/22 08:54:32;;;;;;;27.55;17.50;;;153.70;2252.80;;;;;;4971978;28;20145;-63
2021/03/22 08:57:26;;;;;;;33.63;21.67;;;153.80;2252.80;;;;;;4974242;28;20505;-65
2021/03/22 09:00:25;;;;;;;23.05;16.60;;;128.90;2252.80;;;;;;4979812;28;20031;-67
2021/03/22 09:02:52;;;;;;;;;;;153.70;2252.80;;;;;;4972261;28;20031;-63
2021/03/22 09:05:22;;;;;;;22.60;16.52;;;154.00;2252.80;;;;;;4972075;28;19914;-66
2021/03/22 09:07:48;;;;;;;19.52;14.77;;;153.90;2252.80;;;;;;4990895;28;20030;-66
2021/03/22 09:10:25;;;;;;;22.25;15.60;;;154.10;2252.80;;;;;;4974470;28;20073;-66
2021/03/22 09:12:51;;;;;;;23.27;15.15;;;154.30;2252.80;;;;;;4975118;28;20027;-63
2021/03/22 09:15:31;;;;;;;23.38;15.70;;;154.40;2252.80;;;;;;4971479;28;20039;-63
2021/03/22 09:18:03;;;;;;;18.85;14.63;;;179.20;2252.80;;;;;;4971791;28;20467;-67
2021/03/22 09:20:45;;;;;;;18.05;13.30;;;154.40;2252.80;;;;;;4971460;28;20065;-62
2021/03/22 09:23:38;;;;;;;19.27;13.10;;;153.70;2252.80;;;;;;5011623;28;20484;-65
2021/03/22 09:26:06;;;;;;;23.77;17.83;;;128.80;2252.80;;;;;;5032328;28;20116;-65
2021/03/22 09:28:49;;;;;;;20.10;14.10;;;128.70;2252.80;;;;;;5032897;28;20025;-66
2021/03/22 09:31:15;;;;;;;28.08;18.95;;;128.30;2252.80;;;;;;5012980;28;20073;-64
2021/03/22 09:33:46;;;;;;;26.83;19.65;;;103.20;2227.20;;;;;;5013206;28;20021;-66
2021/03/22 09:36:30;;;;;;;30.98;22.45;;;128.00;2252.80;;;;;;5012635;28;20060;-67
2021/03/22 09:38:57;;;;;;;34.63;22.85;;;128.10;2252.80;;;;;;5013229;28;20025;-64
2021/03/22 09:42:01;;;;;;;35.58;22.45;;;128.10;2252.80;;;;;;5013430;28;20022;-67
2021/03/22 09:44:34;;;;;;;37.53;24.02;;;128.30;2252.80;;;;;;5012385;28;20026;-66
2021/03/22 09:47:05;;;;;;;35.03;21.92;;;128.00;2252.80;;;;;;4995189;28;20026;-65
2021/03/22 09:49:52;;;;;;;38.60;25.17;;;128.00;2252.80;;;;;;5014916;28;20120;-67
2021/03/22 09:52:40;;;;;;;39.00;26.20;;;128.00;2252.80;;;;;;5032419;28;20036;-65
2021/03/22 09:55:27;;;;;;;36.03;23.13;;;128.20;2252.80;;;;;;5032458;28;20057;-65
2021/03/22 09:57:58;;;;;;;34.83;23.50;;;128.20;2252.80;;;;;;5015620;28;20495;-67
2021/03/22 10:00:33;;;;;;;34.55;23.67;;;128.20;2252.80;;;;;;5012661;28;20072;-66
2021/03/22 10:03:19;;;;;;;36.13;24.58;;;128.50;2252.80;;;;;;5028145;28;20029;-67
2021/03/22 10:05:47;;;;;;;39.80;26.30;;;128.50;2252.80;;;;;;5033055;28;20384;-67
2021/03/22 10:08:42;;;;;;;37.83;23.95;;;128.50;2252.80;;;;;;5033354;28;20029;-67
2021/03/22 10:11:29;;;;;;;33.92;24.27;;;128.30;2252.80;;;;;;5031705;28;20046;-68
2021/03/22 10:14:02;;;;;;;38.95;23.65;;;128.50;2252.80;;;;;;5032132;28;20044;-67
2021/03/22 10:16:34;;;;;;;37.20;24.25;;;128.30;2252.80;;;;;;5032100;28;20459;-69
2021/03/22 10:19:12;;;;;;;39.45;25.40;;;128.10;2252.80;;;;;;5032461;28;20025;-66
2021/03/22 10:21:45;;;;;;;42.97;27.53;;;128.00;2252.80;;;;;;5017107;28;20455;-69
2021/03/22 10:24:35;;;;;;;44.53;27.75;;;103.30;2227.20;;;;;;5034789;28;20263;-69
2021/03/22 10:27:03;;;;;;;39.47;27.02;;;128.20;2252.80;;;;;;5016871;28;20399;-65
2021/03/22 10:29:32;;;;;;;38.53;27.35;;;128.30;2252.80;;;;;;5035047;28;20033;-65
2021/03/22 10:32:22;;;;;;;;;;;103.20;2227.20;;;;;;5020624;28;20022;-68
2021/03/22 10:35:08;;;;;;;39.95;25.60;;;103.30;2227.20;;;;;;5017480;28;19909;-69
2021/03/22 10:37:45;;;;;;;40.97;27.63;;;103.30;2227.20;;;;;;5018823;28;20037;-68
2021/03/22 10:40:33;;;;;;;38.22;25.23;;;103.10;2227.20;;;;;;5016329;28;20030;-67
2021/03/22 10:42:59;;;;;;;38.65;25.27;;;103.30;2227.20;;;;;;5015744;28;20026;-66
2021/03/22 10:45:27;;;;;;;38.38;24.77;;;103.30;2227.20;;;;;;5012184;28;20030;-68
2021/03/22 10:47:56;;;;;;;40.70;27.42;;;103.20;2227.20;;;;;;5008082;28;20021;-65
2021/03/22 10:50:32;;;;;;;33.67;23.70;;;103.20;2227.20;;;;;;5026466;28;20034;-65
2021/03/22 10:53:27;;;;;;;37.17;25.55;;;128.20;2252.80;;;;;;5007771;28;20529;-64
2021/03/22 10:55:53;;;;;;;40.63;26.65;;;128.30;2252.80;;;;;;4974139;28;20049;-67
2021/03/22 10:58:26;;;;;;;40.65;27.85;;;128.30;2252.80;;;;;;4974593;28;20026;-68
2021/03/22 11:01:03;;;;;;;39.92;27.27;;;103.20;2227.20;;;;;;4973770;28;20035;-66
2021/03/22 11:03:30;;;;;;;40.33;27.38;;;103.00;2227.20;;;;;;4974429;28;20057;-65
2021/03/22 11:05:57;;;;;;;40.15;27.27;;;103.00;2227.20;;;;;;4973788;28;20039;-68
2021/03/22 11:08:24;;;;;;;42.53;27.33;;;103.30;2227.20;;;;;;4973938;28;20093;-68
2021/03/22 11:11:14;;;;;;;40.67;27.20;;;128.20;2252.80;;;;;;4972772;28;20050;-67
2021/03/22 11:13:44;;;;;;;39.42;25.63;;;128.00;2252.80;;;;;;4956052;28;20051;-66
2021/03/22 11:16:19;;;;;;;33.15;23.55;;;128.50;2252.80;;;;;;4973010;28;20058;-68
2021/03/22 11:18:45;;;;;;;77.05;58.47;;;128.70;2252.80;;;;;;4971343;28;20390;-66
2021/03/22 11:21:11;;;;;;;29.33;20.83;;;128.80;2252.80;;;;;;4973151;28;20496;-67
2021/03/22 11:23:44;;;;;;;92.40;81.80;;;128.80;2252.80;;;;;;4973360;28;20034;-58
2021/03/22 11:26:17;;;;;;;34.65;22.80;;;153.60;2252.80;;;;;;4973603;28;20509;-58
2021/03/22 11:28:44;;;;;;;26.60;19.98;;;153.90;2252.80;;;;;;4973661;28;20433;-59
2021/03/22 11:31:30;;;;;;;30.58;21.50;;;153.80;2252.80;;;;;;4975272;28;20042;-59
2021/03/22 11:34:04;;;;;;;32.83;20.65;;;154.10;2252.80;;;;;;5015190;28;20357;-59
2021/03/22 11:36:33;;;;;;;33.83;25.70;;;154.30;2252.80;;;;;;5014402;28;20465;-60
2021/03/22 11:39:29;;;;;;;32.47;20.90;;;153.90;2252.80;;;;;;5014389;28;20461;-60
2021/03/22 11:41:55;;;;;;;33.67;20.80;;;128.90;2252.80;;;;;;5012185;28;20477;-59
2021/03/22 11:44:30;;;;;;;26.88;19.08;;;153.70;2252.80;;;;;;5013718;28;20097;-59
2021/03/22 11:47:15;;;;;;;31.63;21.27;;;128.40;2252.80;;;;;;5014481;28;20041;-59
2021/03/22 11:49:42;;;;;;;29.20;20.67;;;128.60;2252.80;;;;;;5013962;28;20034;-59
2021/03/22 11:52:25;;;;;;;33.70;21.80;;;128.90;2252.80;;;;;;5014033;28;20018;-59
2021/03/22 11:54:58;;;;;;;35.05;21.58;;;153.80;2252.80;;;;;;5012741;28;20113;-59
2021/03/22 11:57:35;;;;;;;27.80;19.20;;;154.30;2252.80;;;;;;5014205;28;20022;-59
2021/03/22 12:00:29;;;;;;;30.60;20.05;;;179.30;2252.80;;;;;;5013992;28;20488;-59
2021/03/22 12:02:59;;;;;;;25.63;18.55;;;179.40;2252.80;;;;;;5010284;28;20034;-59
2021/03/22 12:05:27;;;;;;;26.90;20.25;;;179.30;2252.80;;;;;;5013966;28;20029;-59
2021/03/22 12:07:53;;;;;;;26.53;20.50;;;154.50;2252.80;;;;;;5013892;28;20068;-59
2021/03/22 12:10:30;;;;;;;27.98;20.50;;;153.90;2252.80;;;;;;5021055;28;20736;-59
2021/03/22 12:12:58;;;;;;;30.23;22.27;;;154.20;2252.80;;;;;;5033819;28;20035;-59
2021/03/22 12:15:25;;;;;;;27.25;19.25;;;154.00;2252.80;;;;;;5033274;28;20530;-60
2021/03/22 12:18:06;;;;;;;28.90;20.88;;;154.20;2252.80;;;;;;5033540;28;20022;-58
2021/03/22 12:20:34;;;;;;;31.35;20.40;;;154.10;2252.80;;;;;;5030166;28;20068;-58
2021/03/22 12:23:00;;;;;;;29.40;19.33;;;154.40;2252.80;;;;;;5030999;28;20026;-59
2021/03/22 12:25:29;;;;;;;30.55;21.48;;;154.20;2252.80;;;;;;5008322;28;20034;-60
2021/03/22 12:27:55;;;;;;;29.63;21.42;;;153.80;2252.80;;;;;;5032578;28;20041;-59
2021/03/22 12:30:26;;;;;;;31.88;21.48;;;128.90;2252.80;;;;;;5032957;28;20518;-60
2021/03/22 12:32:53;;;;;;;28.23;19.75;;;128.70;2252.80;;;;;;5032720;28;20026;-59
2021/03/22 12:35:29;;;;;;;26.10;19.30;;;128.70;2252.80;;;;;;5032994;28;20041;-59
2021/03/22 12:37:55;;;;;;;28.25;18.83;;;128.60;2252.80;;;;;;5029538;28;20041;-59
2021/03/22 12:40:21;;;;;;;32.65;21.92;;;128.20;2252.80;;;;;;5032540;28;20041;-60
2021/03/22 12:42:47;;;;;;;30.35;21.35;;;128.00;2252.80;;;;;;5011888;28;20026;-59